Time;durP1;ratioP1;P1;durP2;ratioP2;P2;SDS_P1;SDS_P2;PMS_P1;PMS_P2;Temp;Humidity;BMP_temperature;BMP_pressure;BME280_temperature;BME280_humidity;BME280_pressure;Samples;Min_cycle;Max_cycle;Signal;HPM_P1;HPM_P2
2022/05/21 00:01:42;;;;;;;;;;;27.10;46.60;;;;;;5075798;28;19908;-64
2022/05/21 00:04:08;;;;;;;;;;;27.00;46.50;;;;;;5074389;28;19946;-63
2022/05/21 00:06:33;;;;;;;;;;;27.00;46.60;;;;;;5075751;28;20435;-64
2022/05/21 00:08:59;;;;;;;;;;;27.00;46.50;;;;;;5074856;28;20275;-64
2022/05/21 00:11:24;;;;;;;;;;;27.10;46.50;;;;;;5075602;28;20379;-64
2022/05/21 00:13:51;;;;;;;;;;;27.00;46.40;;;;;;5074447;28;19912;-64
2022/05/21 00:16:16;;;;;;;;;;;27.00;46.50;;;;;;5075795;28;20398;-64
2022/05/21 00:18:42;;;;;;;;;;;27.00;46.50;;;;;;5075522;28;19951;-64
2022/05/21 00:21:07;;;;;;;;;;;27.00;46.40;;;;;;5075280;28;20003;-63
2022/05/21 00:23:33;;;;;;;;;;;27.00;46.50;;;;;;5075265;28;20371;-64
2022/05/21 00:25:59;;;;;;;;;;;26.90;46.50;;;;;;5075729;28;20405;-64
2022/05/21 00:28:25;;;;;;;;;;;27.00;46.50;;;;;;5075468;28;19916;-64
2022/05/21 00:30:50;;;;;;;;;;;26.90;46.50;;;;;;5074063;28;19934;-64
2022/05/21 00:33:16;;;;;;;;;;;26.90;46.40;;;;;;5075335;28;20314;-64
2022/05/21 00:35:41;;;;;;;;;;;26.90;46.40;;;;;;5073906;28;19912;-64
2022/05/21 00:38:07;;;;;;;;;;;26.90;46.40;;;;;;5075692;28;19920;-64
2022/05/21 00:40:33;;;;;;;;;;;26.90;46.40;;;;;;5073940;28;19909;-64
2022/05/21 00:42:58;;;;;;;;;;;26.90;46.40;;;;;;5073860;28;19908;-64
2022/05/21 00:45:24;;;;;;;;;;;26.90;46.40;;;;;;5073849;28;19909;-64
2022/05/21 00:47:50;;;;;;;;;;;26.80;46.30;;;;;;5074985;28;19987;-64
2022/05/21 00:50:16;;;;;;;;;;;26.80;46.30;;;;;;5057045;28;20003;-64
2022/05/21 00:52:41;;;;;;;;;;;26.80;46.30;;;;;;5074978;28;19912;-63
2022/05/21 00:55:08;;;;;;;;;;;26.80;46.40;;;;;;5074883;28;19916;-63
2022/05/21 00:57:34;;;;;;;;;;;26.80;46.30;;;;;;5074846;28;19958;-64
2022/05/21 01:00:20;;;;;;;;;;;26.80;46.30;;;;;;5074887;28;19975;-63
2022/05/21 01:02:52;;;;;;;;;;;26.80;46.30;;;;;;5074028;28;19919;-63
2022/05/21 01:05:18;;;;;;;;;;;26.80;46.30;;;;;;5074669;28;19948;-64
2022/05/21 01:07:44;;;;;;;;;;;26.80;46.30;;;;;;5073792;28;19954;-63
2022/05/21 01:10:10;;;;;;;;;;;26.80;46.30;;;;;;5074589;28;19958;-63
2022/05/21 01:12:37;;;;;;;;;;;26.80;46.30;;;;;;5074541;28;19908;-64
2022/05/21 01:15:04;;;;;;;;;;;26.80;46.30;;;;;;5074507;28;20310;-63
2022/05/21 01:17:29;;;;;;;;;;;26.70;46.30;;;;;;5073235;28;20500;-63
2022/05/21 01:19:56;;;;;;;;;;;26.80;46.30;;;;;;5074915;28;19908;-63
2022/05/21 01:22:45;;;;;;;;;;;26.80;46.30;;;;;;5073326;28;19910;-64
2022/05/21 01:25:11;;;;;;;;;;;26.70;46.30;;;;;;5063860;28;19958;-64
2022/05/21 01:27:36;;;;;;;;;;;26.70;46.30;;;;;;5074194;28;19908;-64
2022/05/21 01:30:02;;;;;;;;;;;26.70;46.30;;;;;;5072903;28;19962;-64
2022/05/21 01:32:28;;;;;;;;;;;26.70;46.30;;;;;;5071933;28;19915;-64
2022/05/21 01:34:53;;;;;;;;;;;26.60;46.20;;;;;;5074044;28;19913;-62
2022/05/21 01:37:19;;;;;;;;;;;26.60;46.30;;;;;;5074015;28;19909;-62
2022/05/21 01:39:44;;;;;;;;;;;26.70;46.30;;;;;;5074260;28;20006;-62
2022/05/21 01:42:10;;;;;;;;;;;26.60;46.30;;;;;;5073931;28;19999;-62
2022/05/21 01:44:38;;;;;;;;;;;26.60;46.30;;;;;;5072595;28;19909;-64
2022/05/21 01:47:06;;;;;;;;;;;26.60;46.20;;;;;;5073971;28;19908;-63
2022/05/21 01:49:32;;;;;;;;;;;26.60;46.20;;;;;;5073809;28;19974;-64
2022/05/21 01:51:57;;;;;;;;;;;26.60;46.30;;;;;;5072561;28;19916;-63
2022/05/21 01:54:23;;;;;;;;;;;26.50;46.10;;;;;;5073657;28;20386;-64
2022/05/21 01:56:48;;;;;;;;;;;26.60;46.30;;;;;;5073635;28;19909;-64
2022/05/21 01:59:13;;;;;;;;;;;26.60;46.30;;;;;;5073636;28;20283;-63
2022/05/21 02:01:39;;;;;;;;;;;26.50;46.30;;;;;;5073581;28;19909;-63
2022/05/21 02:04:04;;;;;;;;;;;26.50;46.30;;;;;;5073315;28;19917;-64
2022/05/21 02:06:30;;;;;;;;;;;26.50;46.20;;;;;;5073467;28;19916;-64
2022/05/21 02:08:55;;;;;;;;;;;26.50;46.20;;;;;;5073731;28;19908;-64
2022/05/21 02:11:21;;;;;;;;;;;26.50;46.20;;;;;;5073468;28;19993;-64
2022/05/21 02:13:46;;;;;;;;;;;26.50;46.20;;;;;;5073371;28;19916;-63
2022/05/21 02:16:12;;;;;;;;;;;26.50;46.30;;;;;;5073403;28;19924;-64
2022/05/21 02:18:37;;;;;;;;;;;26.50;46.30;;;;;;5073254;28;19959;-64
2022/05/21 02:21:03;;;;;;;;;;;26.50;46.30;;;;;;5073323;28;20338;-64
2022/05/21 02:23:29;;;;;;;;;;;26.50;46.20;;;;;;5073379;28;19909;-64
2022/05/21 02:25:57;;;;;;;;;;;26.50;46.20;;;;;;5073203;28;19935;-64
2022/05/21 02:28:22;;;;;;;;;;;26.50;46.30;;;;;;5073212;28;20260;-64
2022/05/21 02:30:48;;;;;;;;;;;26.50;46.20;;;;;;5073190;28;19938;-64
2022/05/21 02:33:13;;;;;;;;;;;26.50;46.20;;;;;;5073426;28;20379;-64
2022/05/21 02:35:39;;;;;;;;;;;26.40;46.20;;;;;;5073093;28;19916;-64
2022/05/21 02:40:48;;;;;;;;;;;26.50;46.20;;;;;;5072102;28;19995;-64
2022/05/21 02:43:13;;;;;;;;;;;26.40;46.20;;;;;;5072693;28;19959;-64
2022/05/21 02:45:39;;;;;;;;;;;26.40;46.20;;;;;;5073346;28;19909;-63
2022/05/21 02:48:05;;;;;;;;;;;26.40;46.20;;;;;;5073007;28;19933;-64
2022/05/21 02:50:32;;;;;;;;;;;26.40;46.20;;;;;;5073083;28;20359;-64
2022/05/21 02:52:58;;;;;;;;;;;26.30;46.20;;;;;;5072963;28;20485;-63
2022/05/21 02:55:24;;;;;;;;;;;26.30;46.10;;;;;;5072999;28;19960;-64
2022/05/21 02:57:49;;;;;;;;;;;26.30;46.20;;;;;;5072969;28;19916;-64
2022/05/21 03:00:16;;;;;;;;;;;26.30;46.30;;;;;;5073068;28;19909;-64
2022/05/21 03:02:42;;;;;;;;;;;26.30;46.20;;;;;;5072834;28;19916;-64
2022/05/21 03:05:07;;;;;;;;;;;26.40;46.20;;;;;;5072602;28;19921;-64
2022/05/21 03:07:37;;;;;;;;;;;26.30;46.00;;;;;;5072747;28;19909;-63
2022/05/21 03:10:20;;;;;;;;;;;26.40;46.00;;;;;;5072910;28;19908;-63
2022/05/21 03:12:47;;;;;;;;;;;26.30;45.90;;;;;;5072783;28;19908;-64
2022/05/21 03:15:13;;;;;;;;;;;26.30;45.80;;;;;;5072758;28;19959;-64
2022/05/21 03:17:38;;;;;;;;;;;26.30;45.90;;;;;;5072624;28;19912;-64
2022/05/21 03:20:04;;;;;;;;;;;26.30;46.00;;;;;;5072711;28;19955;-64
2022/05/21 03:22:29;;;;;;;;;;;26.30;45.90;;;;;;5072734;28;20208;-64
2022/05/21 03:24:55;;;;;;;;;;;26.30;46.00;;;;;;5072620;28;20007;-64
2022/05/21 03:27:20;;;;;;;;;;;26.20;46.10;;;;;;5072644;28;19915;-64
2022/05/21 03:29:46;;;;;;;;;;;26.20;45.80;;;;;;5072525;28;19935;-64
2022/05/21 03:32:11;;;;;;;;;;;26.20;45.80;;;;;;5072656;28;20311;-64
2022/05/21 03:34:36;;;;;;;;;;;26.20;45.90;;;;;;5072490;28;20287;-64
2022/05/21 03:37:03;;;;;;;;;;;26.20;46.00;;;;;;5072657;28;20283;-64
2022/05/21 03:39:28;;;;;;;;;;;26.30;45.90;;;;;;5073037;28;19909;-64
2022/05/21 03:41:54;;;;;;;;;;;26.30;45.80;;;;;;5072512;28;19913;-64
2022/05/21 03:44:20;;;;;;;;;;;26.30;45.80;;;;;;5072773;28;19909;-63
2022/05/21 03:46:45;;;;;;;;;;;26.20;45.90;;;;;;5071170;28;19909;-64
2022/05/21 03:49:10;;;;;;;;;;;26.20;45.80;;;;;;5072494;28;19916;-64
2022/05/21 03:51:37;;;;;;;;;;;26.20;45.90;;;;;;5072310;28;20012;-63
2022/05/21 03:54:03;;;;;;;;;;;26.20;45.80;;;;;;5072468;28;19999;-64
2022/05/21 03:56:29;;;;;;;;;;;26.20;45.90;;;;;;5075586;28;20340;-62
2022/05/21 03:58:54;;;;;;;;;;;26.10;45.90;;;;;;5076221;28;19989;-61
2022/05/21 04:01:19;;;;;;;;;;;26.10;46.00;;;;;;5074605;28;19979;-62
2022/05/21 04:03:45;;;;;;;;;;;26.20;46.00;;;;;;5075505;28;20405;-62
2022/05/21 04:06:12;;;;;;;;;;;26.20;45.80;;;;;;5075903;28;20019;-61
2022/05/21 04:08:37;;;;;;;;;;;26.20;45.80;;;;;;5076256;28;19916;-61
2022/05/21 04:11:03;;;;;;;;;;;26.20;45.70;;;;;;5075681;28;19909;-61
2022/05/21 04:13:28;;;;;;;;;;;26.20;45.70;;;;;;5075587;28;19909;-61
2022/05/21 04:15:54;;;;;;;;;;;26.20;45.80;;;;;;5075558;28;19916;-61
2022/05/21 04:18:19;;;;;;;;;;;26.20;45.80;;;;;;5075508;28;20356;-61
2022/05/21 04:20:45;;;;;;;;;;;26.20;45.70;;;;;;5075591;28;19908;-61
2022/05/21 04:23:11;;;;;;;;;;;26.20;45.70;;;;;;5075588;28;19909;-62
2022/05/21 04:25:36;;;;;;;;;;;26.10;45.80;;;;;;5075411;28;19908;-61
2022/05/21 04:28:01;;;;;;;;;;;26.10;45.80;;;;;;5075339;28;19916;-61
2022/05/21 04:30:28;;;;;;;;;;;26.10;45.60;;;;;;5075459;28;19912;-62
2022/05/21 04:32:54;;;;;;;;;;;26.10;45.60;;;;;;5075249;28;19942;-62
2022/05/21 04:35:19;;;;;;;;;;;26.10;45.60;;;;;;5075256;28;20377;-62
2022/05/21 04:37:45;;;;;;;;;;;26.10;45.60;;;;;;5075557;28;20288;-62
2022/05/21 04:40:13;;;;;;;;;;;26.10;45.70;;;;;;5075264;28;19915;-64
2022/05/21 04:42:38;;;;;;;;;;;26.00;45.50;;;;;;5074029;28;20314;-64
2022/05/21 04:45:04;;;;;;;;;;;26.00;45.70;;;;;;5073944;28;19923;-64
2022/05/21 04:47:31;;;;;;;;;;;26.00;45.60;;;;;;5074545;28;21296;-64
2022/05/21 04:49:57;;;;;;;;;;;26.10;45.80;;;;;;5075044;28;19992;-64
2022/05/21 04:52:22;;;;;;;;;;;26.00;45.60;;;;;;5073734;28;19909;-64
2022/05/21 04:54:48;;;;;;;;;;;26.00;45.60;;;;;;5074747;28;20517;-64
2022/05/21 04:57:13;;;;;;;;;;;26.00;45.50;;;;;;5074823;28;20007;-64
2022/05/21 04:59:39;;;;;;;;;;;26.00;45.60;;;;;;5074758;28;19909;-64
2022/05/21 05:02:05;;;;;;;;;;;26.00;45.50;;;;;;5074754;28;19916;-64
2022/05/21 05:04:31;;;;;;;;;;;26.00;45.50;;;;;;5074587;28;20379;-64
2022/05/21 05:06:56;;;;;;;;;;;26.00;45.60;;;;;;5073349;28;19913;-64
2022/05/21 05:09:23;;;;;;;;;;;26.00;45.60;;;;;;5074856;28;19916;-64
2022/05/21 05:11:49;;;;;;;;;;;26.00;45.30;;;;;;5074813;28;19909;-64
2022/05/21 05:14:14;;;;;;;;;;;26.00;45.40;;;;;;5074494;28;19915;-63
2022/05/21 05:16:40;;;;;;;;;;;26.00;45.30;;;;;;5073135;28;19912;-64
2022/05/21 05:19:05;;;;;;;;;;;26.00;45.40;;;;;;5074442;28;19914;-64
2022/05/21 05:21:31;;;;;;;;;;;26.00;45.30;;;;;;5074324;28;19915;-64
2022/05/21 05:23:56;;;;;;;;;;;26.00;45.30;;;;;;5056380;28;19951;-64
2022/05/21 05:26:22;;;;;;;;;;;25.90;45.40;;;;;;5074360;28;19908;-64
2022/05/21 05:28:48;;;;;;;;;;;25.90;45.40;;;;;;5074245;28;19912;-64
2022/05/21 05:31:13;;;;;;;;;;;25.90;45.40;;;;;;5074160;28;20333;-63
2022/05/21 05:33:39;;;;;;;;;;;26.00;45.40;;;;;;5074071;28;19999;-64
2022/05/21 05:36:04;;;;;;;;;;;26.00;45.40;;;;;;5073986;28;19939;-64
2022/05/21 05:38:30;;;;;;;;;;;26.00;45.20;;;;;;5074267;28;19956;-64
2022/05/21 05:40:55;;;;;;;;;;;26.00;45.10;;;;;;5073956;28;19908;-64
2022/05/21 05:43:21;;;;;;;;;;;26.00;45.10;;;;;;5072779;28;19943;-64
2022/05/21 05:45:51;;;;;;;;;;;26.00;45.10;;;;;;5073958;28;19977;-64
2022/05/21 05:48:17;;;;;;;;;;;25.90;45.10;;;;;;5056053;28;19909;-64
2022/05/21 05:50:42;;;;;;;;;;;25.90;45.20;;;;;;5073769;28;19915;-64
2022/05/21 05:53:08;;;;;;;;;;;25.90;45.10;;;;;;5073683;28;19959;-64
2022/05/21 05:55:33;;;;;;;;;;;25.90;45.00;;;;;;5073735;28;19913;-64
2022/05/21 05:57:59;;;;;;;;;;;25.90;45.20;;;;;;5073633;28;20372;-64
2022/05/21 06:00:24;;;;;;;;;;;25.90;45.20;;;;;;5073588;28;19970;-64
2022/05/21 06:02:59;;;;;;;;;;;25.90;45.20;;;;;;5073482;28;19908;-63
2022/05/21 06:05:25;;;;;;;;;;;25.90;45.20;;;;;;5073616;28;19920;-62
2022/05/21 06:07:52;;;;;;;;;;;25.90;45.20;;;;;;5073840;28;19912;-64
2022/05/21 06:10:19;;;;;;;;;;;25.90;45.20;;;;;;5072409;28;19918;-64
2022/05/21 06:12:44;;;;;;;;;;;25.90;45.20;;;;;;5072119;28;19908;-64
2022/05/21 06:15:10;;;;;;;;;;;25.90;45.20;;;;;;5073287;28;20299;-63
2022/05/21 06:17:36;;;;;;;;;;;25.90;45.20;;;;;;5072893;28;19909;-64
2022/05/21 06:20:02;;;;;;;;;;;25.90;45.20;;;;;;5073443;28;20382;-64
2022/05/21 06:22:27;;;;;;;;;;;25.90;45.20;;;;;;5071990;28;19912;-64
2022/05/21 06:24:53;;;;;;;;;;;25.80;45.10;;;;;;5073257;28;19909;-64
2022/05/21 06:27:18;;;;;;;;;;;25.80;45.10;;;;;;5072037;28;19923;-64
2022/05/21 06:29:45;;;;;;;;;;;25.80;45.20;;;;;;5071765;28;19908;-64
2022/05/21 06:32:11;;;;;;;;;;;25.80;45.20;;;;;;5073303;28;19913;-64
2022/05/21 06:34:36;;;;;;;;;;;25.80;45.20;;;;;;5073006;28;20563;-64
2022/05/21 06:37:05;;;;;;;;;;;25.80;45.10;;;;;;5073281;28;20354;-64
2022/05/21 06:39:34;;;;;;;;;;;25.80;45.10;;;;;;5052183;28;19909;-64
2022/05/21 06:41:59;;;;;;;;;;;25.80;45.20;;;;;;5053042;28;20015;-64
2022/05/21 06:44:25;;;;;;;;;;;25.80;45.10;;;;;;5053029;28;19948;-64
2022/05/21 06:46:52;;;;;;;;;;;25.80;45.10;;;;;;5068400;28;19908;-64
2022/05/21 06:49:17;;;;;;;;;;;25.80;45.10;;;;;;5053232;28;19931;-64
2022/05/21 06:51:43;;;;;;;;;;;25.80;45.10;;;;;;5053161;28;19909;-64
2022/05/21 06:54:08;;;;;;;;;;;25.80;45.10;;;;;;5053037;28;19959;-64
2022/05/21 06:56:34;;;;;;;;;;;25.80;45.30;;;;;;5068264;28;19913;-64
2022/05/21 06:58:59;;;;;;;;;;;25.80;45.20;;;;;;5052781;28;19909;-64
2022/05/21 07:01:25;;;;;;;;;;;25.80;45.30;;;;;;5052741;28;19909;-64
2022/05/21 07:03:51;;;;;;;;;;;25.80;45.20;;;;;;5052724;28;19921;-62
2022/05/21 07:09:00;;;;;;;;;;;25.80;45.10;;;;;;5065237;28;19916;-63
2022/05/21 07:11:26;;;;;;;;;;;25.70;45.10;;;;;;5072796;28;19909;-64
2022/05/21 07:13:52;;;;;;;;;;;25.70;45.20;;;;;;5072866;28;19912;-64
2022/05/21 07:16:17;;;;;;;;;;;25.70;45.30;;;;;;5071171;28;19955;-63
2022/05/21 07:18:43;;;;;;;;;;;25.70;45.40;;;;;;5072560;28;19995;-64
2022/05/21 07:21:12;;;;;;;;;;;25.70;45.40;;;;;;5072917;28;19920;-64
2022/05/21 07:23:37;;;;;;;;;;;25.70;45.30;;;;;;5071248;28;19939;-63
2022/05/21 07:26:03;;;;;;;;;;;25.70;45.30;;;;;;5054472;28;19909;-64
2022/05/21 07:28:28;;;;;;;;;;;25.70;45.20;;;;;;5071666;28;19916;-63
2022/05/21 07:30:54;;;;;;;;;;;25.70;45.10;;;;;;5075028;28;20003;-64
2022/05/21 07:33:20;;;;;;;;;;;25.70;45.10;;;;;;5076426;28;19908;-63
2022/05/21 07:35:46;;;;;;;;;;;25.70;45.20;;;;;;5076270;28;19912;-64
2022/05/21 07:38:12;;;;;;;;;;;25.70;45.20;;;;;;5075415;28;19951;-64
2022/05/21 07:40:37;;;;;;;;;;;25.70;45.30;;;;;;5076288;28;20009;-64
2022/05/21 07:43:10;;;;;;;;;;;25.70;45.30;;;;;;5076234;28;19916;-64
2022/05/21 07:45:38;;;;;;;;;;;25.70;45.40;;;;;;5076142;28;19908;-63
2022/05/21 07:48:04;;;;;;;;;;;25.70;45.30;;;;;;5076208;28;19973;-63
2022/05/21 07:50:29;;;;;;;;;;;25.70;45.40;;;;;;5076436;28;19908;-63
2022/05/21 07:52:55;;;;;;;;;;;25.60;45.40;;;;;;5075948;28;20288;-63
2022/05/21 07:55:20;;;;;;;;;;;25.60;45.50;;;;;;5075959;28;19913;-64
2022/05/21 07:57:46;;;;;;;;;;;25.70;45.40;;;;;;5075879;28;20007;-63
2022/05/21 08:00:17;;;;;;;;;;;25.70;45.40;;;;;;5075851;28;19915;-63
2022/05/21 08:02:43;;;;;;;;;;;25.70;45.50;;;;;;5082638;28;19909;-63
2022/05/21 08:05:09;;;;;;;;;;;25.70;45.40;;;;;;5075679;28;19927;-63
2022/05/21 08:07:34;;;;;;;;;;;25.70;45.40;;;;;;5074853;28;20003;-63
2022/05/21 08:09:59;;;;;;;;;;;25.70;45.40;;;;;;5075757;28;20007;-63
2022/05/21 08:12:25;;;;;;;;;;;25.70;45.40;;;;;;5075633;28;19908;-64
2022/05/21 08:14:50;;;;;;;;;;;25.70;45.40;;;;;;5075676;28;19920;-64
2022/05/21 08:17:16;;;;;;;;;;;25.60;45.40;;;;;;5075600;28;19916;-64
2022/05/21 08:19:43;;;;;;;;;;;25.60;45.50;;;;;;5075550;28;19915;-64
2022/05/21 08:27:37;;;;;;;;;;;25.60;45.50;;;;;;5075382;28;19954;-63
2022/05/21 08:30:03;;;;;;;;;;;25.60;45.60;;;;;;5075412;28;19908;-64
2022/05/21 08:32:28;;;;;;;;;;;25.60;45.60;;;;;;5073947;28;20286;-64
2022/05/21 08:34:54;;;;;;;;;;;25.60;45.50;;;;;;5073802;28;19912;-63
2022/05/21 08:37:20;;;;;;;;;;;25.60;45.60;;;;;;5075172;28;20431;-63
2022/05/21 08:39:45;;;;;;;;;;;25.60;45.60;;;;;;5075498;28;19920;-63
2022/05/21 08:42:14;;;;;;;;;;;25.60;45.70;;;;;;5074689;28;20017;-63
2022/05/21 08:44:42;;;;;;;;;;;25.60;45.60;;;;;;5073848;28;19913;-63
2022/05/21 08:47:14;;;;;;;;;;;25.60;45.70;;;;;;5075009;28;20303;-64
2022/05/21 08:49:54;;;;;;;;;;;25.60;45.80;;;;;;5075137;28;19916;-64
2022/05/21 08:52:41;;;;;;;;;;;25.60;45.80;;;;;;5073736;28;19915;-63
2022/05/21 08:55:08;;;;;;;;;;;25.50;45.70;;;;;;5074888;28;19935;-63
2022/05/21 08:57:47;;;;;;;;;;;25.50;45.80;;;;;;5074862;28;19915;-64
2022/05/21 09:00:15;;;;;;;;;;;25.50;45.80;;;;;;5075030;28;19908;-63
2022/05/21 09:02:40;;;;;;;;;;;25.50;45.80;;;;;;5073491;28;19909;-63
2022/05/21 09:05:07;;;;;;;;;;;25.50;45.90;;;;;;5056698;28;19993;-63
2022/05/21 09:07:49;;;;;;;;;;;25.50;45.90;;;;;;5074484;28;19908;-63
2022/05/21 09:10:33;;;;;;;;;;;25.50;45.80;;;;;;5074493;28;19915;-63
2022/05/21 09:13:03;;;;;;;;;;;25.50;45.80;;;;;;5074657;28;19999;-63
2022/05/21 09:18:14;;;;;;;;;;;25.40;45.90;;;;;;5074524;28;20417;-63
2022/05/21 09:20:48;;;;;;;;;;;25.50;45.90;;;;;;5074444;28;20292;-63
2022/05/21 09:23:13;;;;;;;;;;;25.50;46.00;;;;;;5073048;28;19908;-63
2022/05/21 09:25:39;;;;;;;;;;;25.50;46.00;;;;;;5074252;28;19919;-63
2022/05/21 09:28:08;;;;;;;;;;;25.50;46.00;;;;;;5074543;28;20328;-63
2022/05/21 09:30:35;;;;;;;;;;;25.50;46.00;;;;;;5074135;28;19909;-63
2022/05/21 09:33:19;;;;;;;;;;;25.50;46.10;;;;;;5074159;28;19915;-63
2022/05/21 09:35:51;;;;;;;;;;;25.50;46.10;;;;;;5072615;28;19913;-63
2022/05/21 09:38:19;;;;;;;;;;;25.40;46.10;;;;;;5073227;28;19916;-63
2022/05/21 09:40:45;;;;;;;;;;;25.40;46.10;;;;;;5072731;28;20387;-63
2022/05/21 09:46:21;;;;;;;;;;;25.40;46.20;;;;;;5073042;28;19967;-64
2022/05/21 09:48:47;;;;;;;;;;;25.40;46.30;;;;;;5073799;28;19912;-63
2022/05/21 09:51:21;;;;;;;;;;;25.40;46.40;;;;;;5055774;28;20275;-63
2022/05/21 09:53:47;;;;;;;;;;;25.40;46.40;;;;;;5072954;28;19909;-64
2022/05/21 09:56:22;;;;;;;;;;;25.40;46.40;;;;;;5073678;28;19954;-63
2022/05/21 09:58:49;;;;;;;;;;;25.40;46.40;;;;;;5073628;28;19963;-64
2022/05/21 10:01:36;;;;;;;;;;;25.40;46.30;;;;;;5073589;28;19958;-64
2022/05/21 10:04:09;;;;;;;;;;;25.40;46.20;;;;;;5073392;28;20292;-63
2022/05/21 10:06:36;;;;;;;;;;;25.40;46.20;;;;;;5073511;28;19916;-64
2022/05/21 10:11:53;;;;;;;;;;;25.40;46.20;;;;;;5073448;28;20294;-64
2022/05/21 10:14:22;;;;;;;;;;;25.40;46.40;;;;;;5073297;28;20348;-63
2022/05/21 10:16:47;;;;;;;;;;;25.30;46.50;;;;;;5073210;28;19913;-64
2022/05/21 10:19:16;;;;;;;;;;;25.30;46.60;;;;;;5071949;28;19915;-64
2022/05/21 10:21:53;;;;;;;;;;;25.30;46.50;;;;;;5071849;28;19908;-64
2022/05/21 10:24:45;;;;;;;;;;;25.30;46.50;;;;;;5073185;28;19909;-64
2022/05/21 10:27:14;;;;;;;;;;;25.30;46.40;;;;;;5042315;28;19909;-63
2022/05/21 10:29:46;;;;;;;;;;;25.40;46.30;;;;;;5071865;28;19912;-63
2022/05/21 10:32:23;;;;;;;;;;;25.40;46.20;;;;;;5073476;28;19908;-64
2022/05/21 10:34:53;;;;;;;;;;;25.50;46.10;;;;;;5078498;28;19912;-63
2022/05/21 10:37:23;;;;;;;;;;;25.50;46.10;;;;;;5073206;28;20015;-63
2022/05/21 10:39:58;;;;;;;;;;;25.60;46.20;;;;;;5073261;28;19916;-64
2022/05/21 10:42:38;;;;;;;;;;;25.60;46.00;;;;;;5073242;28;19967;-64
2022/05/21 10:45:09;;;;;;;;;;;25.60;46.10;;;;;;5073364;28;20384;-64
2022/05/21 10:47:38;;;;;;;;;;;25.60;46.00;;;;;;5072062;28;20476;-63
2022/05/21 10:50:22;;;;;;;;;;;25.60;46.80;;;;;;5071750;28;19999;-63
2022/05/21 10:52:53;;;;;;;;;;;25.60;46.00;;;;;;5071539;28;19909;-63
2022/05/21 10:55:30;;;;;;;;;;;25.60;45.70;;;;;;5072813;28;19913;-63
2022/05/21 10:58:08;;;;;;;;;;;25.60;45.70;;;;;;5072979;28;19909;-63
2022/05/21 11:00:52;;;;;;;;;;;25.60;45.80;;;;;;5071970;28;19998;-63
2022/05/21 11:03:28;;;;;;;;;;;25.60;45.70;;;;;;5072584;28;19913;-63
2022/05/21 11:06:15;;;;;;;;;;;25.60;45.80;;;;;;5075745;28;19924;-63
2022/05/21 11:08:46;;;;;;;;;;;25.60;45.80;;;;;;5036418;28;19908;-64
2022/05/21 11:11:15;;;;;;;;;;;25.60;45.90;;;;;;5076817;28;20288;-64
2022/05/21 11:13:42;;;;;;;;;;;25.60;46.90;;;;;;5076836;28;19909;-64
2022/05/21 11:16:29;;;;;;;;;;;25.60;46.10;;;;;;5058777;28;20458;-64
2022/05/21 11:19:00;;;;;;;;;;;25.60;46.30;;;;;;5076599;28;19913;-64
2022/05/21 11:21:28;;;;;;;;;;;25.60;46.30;;;;;;5076645;28;19915;-64
2022/05/21 11:23:55;;;;;;;;;;;25.50;46.40;;;;;;5058622;28;19908;-64
2022/05/21 11:26:26;;;;;;;;;;;25.50;46.40;;;;;;5076884;28;19909;-63
2022/05/21 11:28:55;;;;;;;;;;;25.50;46.30;;;;;;5075296;28;19944;-63
2022/05/21 11:37:20;;;;;;;;;;;25.50;46.40;;;;;;5076322;28;20272;-64
2022/05/21 11:39:38;;;;;;;;;;;25.50;46.10;;;;;;5076730;28;20163;-64
2022/05/21 11:42:03;;;;;;;;;;;25.60;46.00;;;;;;5074905;28;19984;-63
2022/05/21 11:45:01;;;;;;;;;;;25.60;46.20;;;;;;5076425;28;19915;-64
2022/05/21 11:47:27;;;;;;;;;;;25.60;46.30;;;;;;5075091;28;19936;-64
2022/05/21 11:49:52;;;;;;;;;;;25.50;46.10;;;;;;5076105;28;19916;-64
2022/05/21 11:52:27;;;;;;;;;;;25.50;46.20;;;;;;5076083;28;19913;-64
2022/05/21 11:55:00;;;;;;;;;;;25.50;46.40;;;;;;5074651;28;20313;-64
2022/05/21 11:57:28;;;;;;;;;;;25.50;46.40;;;;;;5076018;28;19915;-63
2022/05/21 11:59:54;;;;;;;;;;;25.50;46.30;;;;;;5076201;28;19908;-63
2022/05/21 12:02:22;;;;;;;;;;;25.50;46.40;;;;;;5075819;28;19908;-63
2022/05/21 12:04:48;;;;;;;;;;;25.50;46.30;;;;;;5075523;28;20280;-63
2022/05/21 12:07:14;;;;;;;;;;;25.50;46.30;;;;;;5076025;28;19934;-63
2022/05/21 12:09:56;;;;;;;;;;;25.40;46.20;;;;;;5076177;28;19908;-63
2022/05/21 12:12:22;;;;;;;;;;;25.40;46.30;;;;;;5075956;28;19958;-64
2022/05/21 12:15:10;;;;;;;;;;;25.50;46.40;;;;;;5075653;28;19908;-64
2022/05/21 12:17:57;;;;;;;;;;;25.50;46.30;;;;;;5074015;28;19999;-64
2022/05/21 12:20:42;;;;;;;;;;;25.50;46.30;;;;;;5074445;28;19909;-64
2022/05/21 12:23:12;;;;;;;;;;;25.60;46.10;;;;;;5074351;28;19915;-63
2022/05/21 12:25:43;;;;;;;;;;;25.60;45.80;;;;;;5075682;28;19991;-64
2022/05/21 12:28:09;;;;;;;;;;;25.60;45.80;;;;;;5075424;28;19915;-63
2022/05/21 12:30:34;;;;;;;;;;;25.60;46.00;;;;;;5075340;28;19909;-63
2022/05/21 12:33:00;;;;;;;;;;;25.60;46.20;;;;;;5075356;28;19978;-64
2022/05/21 12:35:44;;;;;;;;;;;25.50;46.20;;;;;;5075195;28;19913;-64
2022/05/21 12:38:17;;;;;;;;;;;25.50;46.10;;;;;;5074313;28;20314;-64
2022/05/21 12:41:03;;;;;;;;;;;25.50;46.40;;;;;;5073879;28;19912;-64
2022/05/21 12:43:40;;;;;;;;;;;25.50;46.30;;;;;;5075175;28;20054;-63
2022/05/21 12:46:06;;;;;;;;;;;25.50;46.10;;;;;;5073984;28;20436;-63
2022/05/21 12:48:32;;;;;;;;;;;25.50;46.30;;;;;;5073756;28;19916;-64
2022/05/21 12:50:59;;;;;;;;;;;25.40;46.20;;;;;;5073807;28;20426;-64
2022/05/21 12:53:27;;;;;;;;;;;25.50;46.30;;;;;;5074995;28;19931;-63
2022/05/21 12:55:59;;;;;;;;;;;25.50;46.20;;;;;;5074872;28;20391;-63
2022/05/21 12:58:24;;;;;;;;;;;25.60;46.20;;;;;;5073615;28;19954;-63
2022/05/21 13:00:51;;;;;;;;;;;25.60;46.20;;;;;;5073694;28;19908;-63
2022/05/21 13:03:17;;;;;;;;;;;25.60;46.00;;;;;;5073180;28;19916;-63
2022/05/21 13:05:47;;;;;;;;;;;25.60;46.00;;;;;;5056924;28;19913;-64
2022/05/21 13:08:13;;;;;;;;;;;25.60;45.90;;;;;;5073752;28;19908;-64
2022/05/21 13:10:39;;;;;;;;;;;25.60;45.90;;;;;;5073329;28;20296;-63
2022/05/21 13:13:06;;;;;;;;;;;25.60;45.80;;;;;;5074694;28;19916;-63
2022/05/21 13:15:32;;;;;;;;;;;25.60;45.80;;;;;;5073222;28;20042;-63
2022/05/21 13:18:03;;;;;;;;;;;25.60;45.80;;;;;;5074413;28;19943;-64
2022/05/21 13:20:34;;;;;;;;;;;25.60;45.80;;;;;;5056414;28;20431;-63
2022/05/21 13:23:09;;;;;;;;;;;25.60;45.80;;;;;;5073164;28;19974;-63
2022/05/21 13:25:35;;;;;;;;;;;25.60;45.80;;;;;;5074571;28;19908;-63
2022/05/21 13:28:00;;;;;;;;;;;25.60;45.60;;;;;;5071917;28;19916;-63
2022/05/21 13:30:35;;;;;;;;;;;25.60;45.80;;;;;;5072955;28;19908;-63
2022/05/21 13:33:01;;;;;;;;;;;25.60;45.70;;;;;;5074260;28;19913;-63
2022/05/21 13:35:28;;;;;;;;;;;25.60;45.80;;;;;;5074123;28;19973;-63
2022/05/21 13:37:54;;;;;;;;;;;25.70;45.80;;;;;;5073362;28;20275;-63
2022/05/21 13:40:21;;;;;;;;;;;25.70;45.60;;;;;;5073957;28;19909;-63
2022/05/21 13:42:46;;;;;;;;;;;25.60;45.60;;;;;;5074035;28;19916;-64
2022/05/21 13:45:16;;;;;;;;;;;25.60;45.40;;;;;;5074073;28;19909;-64
2022/05/21 13:47:46;;;;;;;;;;;25.70;45.40;;;;;;5072759;28;19908;-63
2022/05/21 13:50:11;;;;;;;;;;;25.70;45.50;;;;;;5072661;28;19908;-64
2022/05/21 13:52:37;;;;;;;;;;;25.70;45.50;;;;;;5073715;28;19908;-63
2022/05/21 13:55:06;;;;;;;;;;;25.60;45.50;;;;;;5072492;28;19927;-63
2022/05/21 13:57:33;;;;;;;;;;;25.60;45.50;;;;;;5073916;28;19908;-63
2022/05/21 14:00:06;;;;;;;;;;;25.60;45.50;;;;;;5073580;28;19938;-63
2022/05/21 14:02:38;;;;;;;;;;;25.70;45.50;;;;;;5073769;28;19948;-63
2022/05/21 14:05:20;;;;;;;;;;;25.60;45.40;;;;;;5073420;28;20441;-63
2022/05/21 14:07:50;;;;;;;;;;;25.60;45.50;;;;;;5055890;28;19909;-64
2022/05/21 14:10:16;;;;;;;;;;;25.60;45.50;;;;;;5073487;28;20359;-63
2022/05/21 14:12:48;;;;;;;;;;;25.60;45.40;;;;;;5072229;28;19915;-63
2022/05/21 14:15:22;;;;;;;;;;;25.60;45.40;;;;;;5072240;28;19941;-63
2022/05/21 14:17:55;;;;;;;;;;;25.60;45.70;;;;;;5055447;28;19999;-63
2022/05/21 14:20:21;;;;;;;;;;;25.60;45.50;;;;;;5072137;28;19909;-64
2022/05/21 14:22:50;;;;;;;;;;;25.60;45.60;;;;;;5073533;28;19974;-64
2022/05/21 14:25:24;;;;;;;;;;;25.60;45.70;;;;;;5073343;28;19916;-64
2022/05/21 14:28:08;;;;;;;;;;;25.60;45.50;;;;;;5073214;28;19909;-64
2022/05/21 14:30:34;;;;;;;;;;;25.70;45.50;;;;;;5073304;28;20343;-64
2022/05/21 14:33:29;;;;;;;;;;;25.70;45.30;;;;;;5071948;28;19916;-63
2022/05/21 14:35:55;;;;;;;;;;;25.70;45.40;;;;;;5050730;28;19966;-64
2022/05/21 14:38:21;;;;;;;;;;;25.70;45.50;;;;;;5071969;28;19913;-63
2022/05/21 14:40:56;;;;;;;;;;;25.60;45.50;;;;;;5073438;28;19915;-64
2022/05/21 14:43:36;;;;;;;;;;;25.60;45.60;;;;;;5071938;28;19916;-64
2022/05/21 14:46:02;;;;;;;;;;;25.60;45.40;;;;;;5073215;28;19959;-63
2022/05/21 14:48:27;;;;;;;;;;;25.60;45.40;;;;;;5073282;28;20386;-63